Time;durP1;ratioP1;P1;durP2;ratioP2;P2;SDS_P1;SDS_P2;PMS_P1;PMS_P2;Temp;Humidity;BMP_temperature;BMP_pressure;BME280_temperature;BME280_humidity;BME280_pressure;Samples;Min_cycle;Max_cycle;Signal;HPM_P1;HPM_P2
2021/09/25 00:00:37;;;;;;;7.88;6.40;;;14.70;99.90;;;;;;4993009;28;20042;-70
2021/09/25 00:03:05;;;;;;;7.30;6.45;;;14.80;99.90;;;;;;4975468;28;20045;-70
2021/09/25 00:05:33;;;;;;;13.18;6.50;;;14.70;99.90;;;;;;4993125;28;20543;-70
2021/09/25 00:07:59;;;;;;;9.18;6.80;;;14.80;99.90;;;;;;4993172;28;20027;-69
2021/09/25 00:10:26;;;;;;;8.23;6.60;;;14.70;99.90;;;;;;4975549;28;20117;-70
2021/09/25 00:12:53;;;;;;;8.55;6.50;;;14.70;99.90;;;;;;4992842;28;20083;-70
2021/09/25 00:15:19;;;;;;;10.38;6.55;;;14.70;99.90;;;;;;4992882;28;20057;-69
2021/09/25 00:17:48;;;;;;;8.73;7.15;;;14.60;99.90;;;;;;4993026;28;20477;-69
2021/09/25 00:20:15;;;;;;;9.93;6.80;;;14.70;99.90;;;;;;4992869;28;20027;-69
2021/09/25 00:22:41;;;;;;;7.25;6.55;;;14.70;99.90;;;;;;4992618;28;20061;-69
2021/09/25 00:25:07;;;;;;;8.02;6.78;;;14.70;99.90;;;;;;4992825;28;20539;-69
2021/09/25 00:27:33;;;;;;;8.35;6.50;;;14.70;99.90;;;;;;4992860;28;20157;-69
2021/09/25 00:29:58;;;;;;;7.15;6.07;;;14.60;99.90;;;;;;4992554;28;20109;-69
2021/09/25 00:32:24;;;;;;;7.35;6.63;;;14.60;99.90;;;;;;4992395;28;20041;-69
2021/09/25 00:34:49;;;;;;;8.45;7.22;;;14.60;99.90;;;;;;4992847;28;20037;-69
2021/09/25 00:37:15;;;;;;;9.68;6.88;;;14.60;99.90;;;;;;4974939;28;20022;-69
2021/09/25 00:39:41;;;;;;;8.77;7.10;;;14.70;99.90;;;;;;4992574;28;20117;-69
2021/09/25 00:42:07;;;;;;;10.85;7.28;;;14.60;99.90;;;;;;4992430;28;20038;-70
2021/09/25 00:44:33;;;;;;;9.63;7.18;;;14.60;99.90;;;;;;4992437;28;20476;-70
2021/09/25 00:46:58;;;;;;;9.77;7.22;;;14.50;99.90;;;;;;4992607;28;20054;-69
2021/09/25 00:49:24;;;;;;;8.48;7.03;;;14.50;99.90;;;;;;4995893;28;20030;-69
2021/09/25 00:51:51;;;;;;;11.60;7.53;;;14.60;99.90;;;;;;4984237;28;20022;-70
2021/09/25 00:54:17;;;;;;;9.80;7.65;;;14.50;99.90;;;;;;4974878;28;20027;-69
2021/09/25 00:56:44;;;;;;;10.68;7.13;;;14.50;99.90;;;;;;4992443;28;20093;-69
2021/09/25 00:59:11;;;;;;;11.55;7.70;;;14.40;99.90;;;;;;4992284;28;20054;-69
2021/09/25 01:01:38;;;;;;;9.48;7.95;;;14.40;99.90;;;;;;4992205;28;20034;-70
2021/09/25 01:04:04;;;;;;;9.48;7.88;;;14.40;99.90;;;;;;4992187;28;20060;-69
2021/09/25 01:06:30;;;;;;;9.10;7.35;;;14.30;99.90;;;;;;4992295;28;20058;-69
2021/09/25 01:08:55;;;;;;;12.25;7.90;;;14.30;99.90;;;;;;4992383;28;20077;-69
2021/09/25 01:11:23;;;;;;;9.48;8.10;;;14.40;99.90;;;;;;4991997;28;20058;-69
2021/09/25 01:13:49;;;;;;;9.85;7.63;;;14.30;99.90;;;;;;4992116;28;20036;-69
2021/09/25 01:16:14;;;;;;;9.60;7.80;;;14.30;99.90;;;;;;4992268;28;20034;-68
2021/09/25 01:18:40;;;;;;;9.68;7.65;;;14.30;99.90;;;;;;4992202;28;20474;-69
2021/09/25 01:21:09;;;;;;;10.80;8.45;;;14.40;99.90;;;;;;4992060;28;20030;-69
2021/09/25 01:23:36;;;;;;;9.63;7.85;;;14.40;99.90;;;;;;4974692;28;20037;-69
2021/09/25 01:26:03;;;;;;;10.52;8.25;;;14.40;99.90;;;;;;4992131;28;20162;-69
2021/09/25 01:28:30;;;;;;;12.80;8.75;;;14.50;99.90;;;;;;4991977;28;20033;-69
2021/09/25 01:30:56;;;;;;;9.48;8.43;;;14.50;99.90;;;;;;4991867;28;20022;-68
2021/09/25 01:33:31;;;;;;;10.43;8.07;;;14.50;99.90;;;;;;4992015;28;20374;-69
2021/09/25 01:35:57;;;;;;;12.15;8.85;;;14.60;99.90;;;;;;4992162;28;20077;-69
2021/09/25 01:38:22;;;;;;;11.38;8.73;;;14.50;99.90;;;;;;4974501;28;20483;-69
2021/09/25 01:40:48;;;;;;;10.88;9.48;;;14.40;99.90;;;;;;4991864;28;20022;-69
2021/09/25 01:43:15;;;;;;;10.15;9.07;;;14.20;99.90;;;;;;4991871;28;20137;-70
2021/09/25 01:45:42;;;;;;;11.40;8.85;;;14.20;99.90;;;;;;4992274;28;20507;-69
2021/09/25 01:48:08;;;;;;;11.50;9.57;;;14.20;99.90;;;;;;4992206;28;20058;-69
2021/09/25 01:50:34;;;;;;;10.88;9.60;;;14.00;99.90;;;;;;4991004;28;20080;-69
2021/09/25 01:52:59;;;;;;;11.82;9.82;;;14.00;99.90;;;;;;4995682;28;20492;-69
2021/09/25 01:55:25;;;;;;;13.55;10.10;;;13.90;99.90;;;;;;4995579;28;20492;-70
2021/09/25 01:57:50;;;;;;;13.70;10.45;;;13.90;99.90;;;;;;4995435;28;20041;-69
2021/09/25 02:00:16;;;;;;;12.60;10.18;;;13.90;99.90;;;;;;4995548;28;20031;-69
2021/09/25 02:05:08;;;;;;;11.82;9.73;;;13.70;99.90;;;;;;5058249;23;20523;-74
2021/09/25 02:07:33;;;;;;;11.82;9.73;;;13.90;99.90;;;;;;5033595;28;20503;-77
2021/09/25 02:09:59;;;;;;;11.35;9.60;;;13.80;99.90;;;;;;5009257;28;20048;-76
2021/09/25 02:12:24;;;;;;;10.65;8.95;;;13.90;99.90;;;;;;5016699;28;20036;-76
2021/09/25 02:14:50;;;;;;;12.50;9.95;;;13.90;99.90;;;;;;5022398;28;20029;-76
2021/09/25 02:17:16;;;;;;;10.65;8.85;;;14.00;99.90;;;;;;5034525;28;20152;-77
2021/09/25 02:19:41;;;;;;;11.00;9.10;;;14.20;99.90;;;;;;5034508;28;20037;-74
2021/09/25 02:22:07;;;;;;;11.25;9.20;;;14.20;99.90;;;;;;5034169;28;20105;-75
2021/09/25 02:24:33;;;;;;;11.65;9.60;;;14.20;99.90;;;;;;5034159;28;20025;-75
2021/09/25 02:26:59;;;;;;;12.63;9.65;;;14.20;99.90;;;;;;5016646;28;20029;-76
2021/09/25 02:29:24;;;;;;;11.15;8.98;;;14.20;99.90;;;;;;5016683;28;20502;-76
2021/09/25 02:31:50;;;;;;;9.48;8.48;;;14.30;99.90;;;;;;5016277;28;20028;-76
2021/09/25 02:34:16;;;;;;;11.32;9.93;;;14.40;99.90;;;;;;5034267;28;20534;-77
2021/09/25 02:36:41;;;;;;;11.02;9.30;;;14.30;99.90;;;;;;5016363;28;20112;-77
2021/09/25 02:39:07;;;;;;;13.23;9.95;;;14.10;99.90;;;;;;5045292;28;20668;-78
2021/09/25 02:41:32;;;;;;;12.30;9.70;;;13.90;99.90;;;;;;5049800;28;20431;-77
2021/09/25 02:43:58;;;;;;;12.63;9.52;;;13.70;99.90;;;;;;5054387;28;20017;-77
2021/09/25 02:46:23;;;;;;;12.88;9.82;;;13.60;99.90;;;;;;5054033;28;20083;-78
2021/09/25 02:48:49;;;;;;;12.15;10.30;;;13.30;99.90;;;;;;5036307;28;20033;-78
2021/09/25 02:51:14;;;;;;;13.30;10.43;;;13.30;99.90;;;;;;5048495;28;20031;-78
2021/09/25 02:53:40;;;;;;;12.07;10.25;;;13.40;99.90;;;;;;5028139;28;20028;-77
2021/09/25 02:56:06;;;;;;;14.82;11.27;;;13.20;99.90;;;;;;5040486;28;20021;-77
2021/09/25 02:58:32;;;;;;;13.50;11.38;;;13.10;99.90;;;;;;5024437;28;20108;-78
2021/09/25 03:00:57;;;;;;;13.68;10.75;;;13.00;99.90;;;;;;5038501;28;20029;-77
2021/09/25 03:03:23;;;;;;;13.40;10.75;;;13.00;99.90;;;;;;5042082;28;20120;-79
2021/09/25 03:05:48;;;;;;;12.80;10.77;;;12.80;99.90;;;;;;5047135;28;20021;-77
2021/09/25 03:08:14;;;;;;;14.38;10.10;;;12.80;99.90;;;;;;5027601;28;20036;-76
2021/09/25 03:10:40;;;;;;;12.95;10.98;;;12.80;99.90;;;;;;5022218;28;20036;-76
2021/09/25 03:13:05;;;;;;;12.52;11.30;;;12.80;99.90;;;;;;5041905;28;20131;-75
2021/09/25 03:15:32;;;;;;;13.57;12.18;;;12.80;99.90;;;;;;5033946;28;20033;-79
2021/09/25 03:17:57;;;;;;;15.07;11.77;;;12.80;99.90;;;;;;5042849;28;20034;-78
2021/09/25 03:20:23;;;;;;;15.77;11.65;;;12.70;99.90;;;;;;5029415;28;20075;-77
2021/09/25 03:22:48;;;;;;;13.25;11.63;;;12.70;99.90;;;;;;5045084;28;20029;-77
2021/09/25 03:25:15;;;;;;;12.90;11.52;;;12.70;99.90;;;;;;5040218;28;20029;-76
2021/09/25 03:27:41;;;;;;;13.07;11.60;;;12.70;99.90;;;;;;5024209;28;20026;-77
2021/09/25 03:30:09;;;;;;;13.60;11.85;;;12.60;99.90;;;;;;5029997;28;20424;-77
2021/09/25 03:32:34;;;;;;;13.15;11.82;;;12.60;99.90;;;;;;5027076;28;20075;-75
2021/09/25 03:35:00;;;;;;;14.32;12.93;;;12.60;99.90;;;;;;5039755;28;20029;-75
2021/09/25 03:37:26;;;;;;;14.25;12.75;;;12.60;99.90;;;;;;5041538;28;20072;-76
2021/09/25 03:39:51;;;;;;;16.42;12.77;;;12.60;99.90;;;;;;5046427;28;20112;-75
2021/09/25 03:42:17;;;;;;;14.80;12.80;;;12.60;99.90;;;;;;5044430;28;20031;-76
2021/09/25 03:44:43;;;;;;;14.23;12.73;;;12.60;99.90;;;;;;5039373;28;20035;-76
2021/09/25 03:47:09;;;;;;;15.45;12.88;;;12.70;99.90;;;;;;5041923;28;20033;-78
2021/09/25 03:49:34;;;;;;;13.43;12.02;;;12.70;99.90;;;;;;5050947;28;20115;-76
2021/09/25 03:52:00;;;;;;;14.98;13.23;;;12.70;99.90;;;;;;5041135;28;20168;-76
2021/09/25 03:54:25;;;;;;;13.60;12.30;;;12.70;99.90;;;;;;5046076;28;20017;-76
2021/09/25 03:56:51;;;;;;;14.63;13.07;;;12.70;99.90;;;;;;5034279;28;20437;-76
2021/09/25 03:59:16;;;;;;;15.80;13.13;;;12.70;99.90;;;;;;5046376;28;20504;-76
2021/09/25 04:01:42;;;;;;;15.10;12.50;;;12.50;99.90;;;;;;5026225;28;20120;-76
2021/09/25 04:04:08;;;;;;;16.02;14.23;;;12.20;99.90;;;;;;5039219;28;20478;-76
2021/09/25 04:06:33;;;;;;;16.27;13.13;;;12.20;99.90;;;;;;5041144;28;20029;-75
2021/09/25 04:08:59;;;;;;;16.27;14.65;;;12.00;99.90;;;;;;5046138;28;20041;-74
2021/09/25 04:11:25;;;;;;;18.33;15.27;;;11.70;99.90;;;;;;5025275;28;20115;-75
2021/09/25 04:13:51;;;;;;;17.67;15.80;;;11.80;99.90;;;;;;5021548;28;20419;-75
2021/09/25 04:16:17;;;;;;;17.30;15.23;;;11.70;99.90;;;;;;5041050;28;20510;-75
2021/09/25 04:18:43;;;;;;;18.65;15.43;;;11.60;99.90;;;;;;5046020;28;20064;-75
2021/09/25 04:21:08;;;;;;;19.25;16.90;;;11.50;99.90;;;;;;5043574;28;20048;-75
2021/09/25 04:23:34;;;;;;;17.83;16.00;;;11.40;99.90;;;;;;5039159;28;20028;-75
2021/09/25 04:25:59;;;;;;;19.70;17.35;;;11.50;99.90;;;;;;5024647;28;20032;-74
2021/09/25 04:28:25;;;;;;;19.13;17.15;;;11.40;99.90;;;;;;5027843;28;20045;-75
2021/09/25 04:30:50;;;;;;;19.90;17.77;;;11.30;99.90;;;;;;5032100;28;20395;-76
2021/09/25 04:33:16;;;;;;;18.77;16.52;;;11.30;99.90;;;;;;5027852;28;20518;-76
2021/09/25 04:35:42;;;;;;;19.60;16.25;;;11.30;99.90;;;;;;5042858;28;20032;-74
2021/09/25 04:38:07;;;;;;;18.77;16.88;;;11.40;99.90;;;;;;5051873;28;20052;-74
2021/09/25 04:40:33;;;;;;;21.42;17.15;;;11.40;99.90;;;;;;5023364;28;20447;-74
2021/09/25 04:43:00;;;;;;;20.13;16.42;;;11.40;99.90;;;;;;5045424;28;20022;-76
2021/09/25 04:45:26;;;;;;;18.30;16.33;;;11.40;99.90;;;;;;5032275;28;20032;-76
2021/09/25 04:47:52;;;;;;;20.10;17.75;;;11.40;99.90;;;;;;5027884;28;20022;-77
2021/09/25 04:50:18;;;;;;;18.30;16.02;;;11.30;99.90;;;;;;5032119;28;20029;-77
2021/09/25 04:52:44;;;;;;;19.40;16.60;;;11.40;99.90;;;;;;5014213;28;20501;-74
2021/09/25 04:55:10;;;;;;;18.35;16.48;;;11.30;99.90;;;;;;5014421;28;20025;-76
2021/09/25 04:57:36;;;;;;;18.63;15.93;;;11.20;99.90;;;;;;5045566;28;20390;-75
2021/09/25 05:00:04;;;;;;;23.25;19.38;;;11.30;99.90;;;;;;5032043;28;20491;-75
2021/09/25 05:02:30;;;;;;;26.77;21.95;;;11.40;99.90;;;;;;5031671;28;20479;-76
2021/09/25 05:04:55;;;;;;;27.08;24.27;;;11.30;99.90;;;;;;5031936;28;20048;-76
2021/09/25 05:07:21;;;;;;;30.35;25.05;;;11.30;99.90;;;;;;5049379;28;20025;-75
2021/09/25 05:09:46;;;;;;;40.22;32.55;;;11.30;99.90;;;;;;5040856;28;20104;-76
2021/09/25 05:12:12;;;;;;;137.65;89.32;;;11.30;99.90;;;;;;5031504;28;20115;-77
2021/09/25 05:14:38;;;;;;;95.57;65.32;;;11.20;99.90;;;;;;5051697;28;20033;-78
2021/09/25 05:17:04;;;;;;;59.55;37.40;;;11.30;99.90;;;;;;5051805;28;20067;-78
2021/09/25 05:19:29;;;;;;;68.35;40.38;;;11.20;99.90;;;;;;5041004;28;20045;-76
2021/09/25 05:21:55;;;;;;;73.25;43.50;;;11.00;99.90;;;;;;5027267;28;20095;-77
2021/09/25 05:24:20;;;;;;;219.48;107.60;;;11.00;99.90;;;;;;5045584;28;20092;-75
2021/09/25 05:26:47;;;;;;;203.00;103.05;;;11.00;99.90;;;;;;5024636;28;20029;-76
2021/09/25 05:29:12;;;;;;;292.70;142.13;;;11.10;99.90;;;;;;5027578;28;20022;-76
2021/09/25 05:31:38;;;;;;;595.72;302.55;;;11.30;99.90;;;;;;5030912;28;20034;-76
2021/09/25 05:34:04;;;;;;;425.50;201.00;;;11.30;99.90;;;;;;5017984;28;20071;-73
2021/09/25 05:36:30;;;;;;;50.83;31.33;;;11.30;99.90;;;;;;5048915;28;20026;-72
2021/09/25 05:38:56;;;;;;;25.50;19.08;;;11.60;99.90;;;;;;5045148;28;20025;-76
2021/09/25 05:41:21;;;;;;;21.50;19.10;;;11.40;99.90;;;;;;5041718;28;20036;-76
2021/09/25 05:43:50;;;;;;;28.38;23.20;;;11.30;99.90;;;;;;5055270;28;20044;-76
2021/09/25 05:46:17;;;;;;;23.48;18.35;;;11.30;99.90;;;;;;5041945;28;20388;-76
2021/09/25 05:48:42;;;;;;;19.25;16.73;;;11.50;99.90;;;;;;5027148;28;20048;-76
2021/09/25 05:51:10;;;;;;;19.35;16.15;;;11.50;99.90;;;;;;5021813;28;20675;-76
2021/09/25 05:53:36;;;;;;;18.73;15.85;;;11.50;99.90;;;;;;5037214;28;20052;-76
2021/09/25 05:56:02;;;;;;;20.75;15.80;;;11.70;99.90;;;;;;5023900;28;20474;-76
2021/09/25 05:58:27;;;;;;;18.08;15.50;;;11.70;99.90;;;;;;5043834;28;20026;-76
2021/09/25 06:00:53;;;;;;;17.38;15.32;;;11.70;99.90;;;;;;5046591;28;20025;-76
2021/09/25 06:03:18;;;;;;;20.13;15.30;;;11.80;99.90;;;;;;5025839;28;20056;-76
2021/09/25 06:05:45;;;;;;;17.27;15.05;;;11.80;99.90;;;;;;5046392;28;20025;-76
2021/09/25 06:08:10;;;;;;;16.98;13.95;;;11.90;99.90;;;;;;5024572;28;20032;-75
2021/09/25 06:10:37;;;;;;;19.25;14.95;;;12.00;99.90;;;;;;5016862;28;20413;-76
2021/09/25 06:13:03;;;;;;;19.33;14.88;;;12.10;99.90;;;;;;5045789;28;20095;-76
2021/09/25 06:15:29;;;;;;;18.33;15.73;;;12.20;99.90;;;;;;5041285;28;20025;-76
2021/09/25 06:17:55;;;;;;;17.38;15.05;;;12.30;99.90;;;;;;5026059;28;20033;-75
2021/09/25 06:20:21;;;;;;;20.02;15.35;;;12.40;99.90;;;;;;5048153;28;20526;-76
2021/09/25 06:22:46;;;;;;;17.17;14.63;;;12.50;99.90;;;;;;5027120;28;20032;-76
2021/09/25 06:25:12;;;;;;;20.95;15.27;;;12.60;99.90;;;;;;5023306;28;20371;-76
2021/09/25 06:27:37;;;;;;;19.05;13.75;;;12.70;99.90;;;;;;5044033;28;20057;-74
2021/09/25 06:30:05;;;;;;;18.20;13.80;;;12.80;99.90;;;;;;5034233;28;20103;-75
2021/09/25 06:32:31;;;;;;;16.88;14.38;;;12.90;99.90;;;;;;5034003;28;20029;-76
2021/09/25 06:34:56;;;;;;;15.98;13.65;;;12.90;99.90;;;;;;5037240;28;20021;-76
2021/09/25 06:37:22;;;;;;;16.95;12.98;;;13.00;99.90;;;;;;5054079;28;20029;-76
2021/09/25 06:39:47;;;;;;;16.92;13.73;;;12.90;99.90;;;;;;5040793;28;20044;-76
2021/09/25 06:42:13;;;;;;;17.48;13.40;;;13.00;99.90;;;;;;5043436;28;20080;-76
2021/09/25 06:44:38;;;;;;;17.50;13.75;;;13.00;99.90;;;;;;5047218;28;20025;-76
2021/09/25 06:47:04;;;;;;;16.13;12.98;;;13.10;99.90;;;;;;5026480;28;20482;-76
2021/09/25 06:49:29;;;;;;;14.82;12.93;;;13.20;99.90;;;;;;5036880;28;20025;-76
2021/09/25 06:51:55;;;;;;;15.43;13.23;;;13.40;99.90;;;;;;5044849;28;20529;-77
2021/09/25 06:54:21;;;;;;;19.70;14.00;;;13.40;99.90;;;;;;5040292;28;20096;-76
2021/09/25 06:56:46;;;;;;;15.80;13.00;;;13.40;99.90;;;;;;5042844;28;20402;-76
2021/09/25 06:59:12;;;;;;;14.50;12.90;;;13.40;99.90;;;;;;5030294;28;20498;-76
2021/09/25 07:01:38;;;;;;;14.02;12.60;;;13.50;99.90;;;;;;5026419;28;20402;-76
2021/09/25 07:04:04;;;;;;;14.73;12.15;;;13.60;99.90;;;;;;5042236;28;20025;-76
2021/09/25 07:06:29;;;;;;;15.77;13.07;;;13.70;99.90;;;;;;5040601;28;20049;-76
2021/09/25 07:08:55;;;;;;;14.57;12.80;;;13.80;99.90;;;;;;5046418;28;20037;-76
2021/09/25 07:11:20;;;;;;;16.30;12.95;;;13.90;99.90;;;;;;5026405;28;20078;-76
2021/09/25 07:13:46;;;;;;;14.23;12.73;;;13.90;99.90;;;;;;5040022;28;20025;-76
2021/09/25 07:16:12;;;;;;;15.32;11.95;;;14.00;99.90;;;;;;5042591;28;20053;-76
2021/09/25 07:18:38;;;;;;;14.73;12.63;;;14.10;99.90;;;;;;5047018;28;20501;-76
2021/09/25 07:21:05;;;;;;;14.82;12.05;;;14.10;99.90;;;;;;5043932;28;20479;-76
2021/09/25 07:23:31;;;;;;;16.63;11.90;;;14.20;99.90;;;;;;5040283;28;20390;-76
2021/09/25 07:25:58;;;;;;;16.55;12.52;;;14.30;99.90;;;;;;5025342;28;20031;-76
2021/09/25 07:28:24;;;;;;;15.77;11.95;;;14.40;99.90;;;;;;5033897;28;20025;-76
2021/09/25 07:30:49;;;;;;;16.35;12.75;;;14.50;99.90;;;;;;5044009;28;20441;-76
2021/09/25 07:33:16;;;;;;;15.20;12.50;;;14.60;99.90;;;;;;5021897;28;20470;-76
2021/09/25 07:35:43;;;;;;;16.48;12.10;;;14.60;99.90;;;;;;5042178;28;20017;-76
2021/09/25 07:38:09;;;;;;;15.13;11.80;;;14.80;99.90;;;;;;5046612;28;20475;-76
2021/09/25 07:40:35;;;;;;;15.80;12.77;;;14.90;99.90;;;;;;5043998;28;20029;-76
2021/09/25 07:43:01;;;;;;;16.42;12.68;;;14.90;99.90;;;;;;5021760;28;20025;-75
2021/09/25 07:45:27;;;;;;;16.73;12.23;;;15.00;99.90;;;;;;5024130;28;20025;-76
2021/09/25 07:47:53;;;;;;;15.23;11.77;;;15.10;99.90;;;;;;5045695;28;20387;-76
2021/09/25 07:50:19;;;;;;;15.40;11.93;;;15.10;99.90;;;;;;5026099;28;20139;-75
2021/09/25 07:52:44;;;;;;;13.95;11.82;;;15.20;99.90;;;;;;5021478;28;20080;-75
2021/09/25 07:55:12;;;;;;;13.43;10.88;;;15.20;99.90;;;;;;5042090;28;20060;-75
2021/09/25 07:57:38;;;;;;;12.82;11.18;;;15.30;99.90;;;;;;5037168;28;20061;-76
2021/09/25 08:00:06;;;;;;;16.30;11.55;;;15.30;99.90;;;;;;5041430;28;20054;-76
2021/09/25 08:02:32;;;;;;;15.93;12.10;;;15.30;99.90;;;;;;5045852;28;20118;-75
2021/09/25 08:04:57;;;;;;;13.00;10.82;;;15.50;99.90;;;;;;5044184;28;20088;-76
2021/09/25 08:07:23;;;;;;;14.63;11.15;;;15.50;99.90;;;;;;5021459;28;20032;-73
2021/09/25 08:09:48;;;;;;;12.90;10.55;;;15.50;99.90;;;;;;5041091;28;20040;-75
2021/09/25 08:12:14;;;;;;;13.00;10.43;;;15.70;99.90;;;;;;5045546;28;20027;-74
2021/09/25 08:14:39;;;;;;;14.98;10.45;;;15.70;99.90;;;;;;5032288;28;20026;-72
2021/09/25 08:17:05;;;;;;;16.60;10.57;;;15.70;99.90;;;;;;5032522;28;20383;-74
2021/09/25 08:19:31;;;;;;;12.85;10.00;;;15.80;99.90;;;;;;5032447;28;20022;-76
2021/09/25 08:21:56;;;;;;;14.40;11.35;;;15.90;99.90;;;;;;5045659;28;20029;-76
2021/09/25 08:24:22;;;;;;;15.10;10.85;;;16.00;99.90;;;;;;5043216;28;20056;-76
2021/09/25 08:26:47;;;;;;;14.25;10.70;;;16.00;99.90;;;;;;5048097;28;20060;-75
2021/09/25 08:29:13;;;;;;;14.45;11.23;;;15.90;99.90;;;;;;5025083;28;20120;-76
2021/09/25 08:31:38;;;;;;;11.35;9.02;;;16.10;99.90;;;;;;5023137;28;20036;-76
2021/09/25 08:34:04;;;;;;;14.18;11.15;;;16.00;99.90;;;;;;5041170;28;20052;-76
2021/09/25 08:36:29;;;;;;;15.95;10.75;;;16.00;99.90;;;;;;5045245;28;20493;-77
2021/09/25 08:38:55;;;;;;;11.23;9.73;;;16.20;99.90;;;;;;5031119;28;20021;-77
2021/09/25 08:41:21;;;;;;;11.90;9.63;;;16.40;99.90;;;;;;5048409;28;20029;-76
2021/09/25 08:43:47;;;;;;;11.27;9.60;;;16.30;99.90;;;;;;5041621;28;20044;-77
2021/09/25 08:46:14;;;;;;;13.93;10.18;;;16.40;99.90;;;;;;5031903;28;20499;-76
2021/09/25 08:48:40;;;;;;;12.13;10.30;;;16.30;99.90;;;;;;5031979;28;20021;-76
2021/09/25 08:51:07;;;;;;;11.98;9.02;;;16.30;99.90;;;;;;5049011;28;20029;-77
2021/09/25 08:53:32;;;;;;;13.73;8.95;;;16.50;99.90;;;;;;5051606;28;20032;-77
2021/09/25 08:55:58;;;;;;;13.05;9.25;;;16.70;99.90;;;;;;5030892;28;20033;-76
2021/09/25 08:58:24;;;;;;;12.15;9.00;;;16.90;99.90;;;;;;5013667;28;20472;-77
2021/09/25 09:00:53;;;;;;;11.45;8.38;;;17.10;99.90;;;;;;5031438;28;20032;-77
2021/09/25 09:03:29;;;;;;;11.48;8.15;;;17.10;99.90;;;;;;5031492;28;20395;-77
2021/09/25 09:06:10;;;;;;;10.68;8.98;;;16.90;99.90;;;;;;5031610;28;20491;-75
2021/09/25 09:08:37;;;;;;;10.02;8.80;;;16.90;99.90;;;;;;5013976;28;20510;-77
2021/09/25 09:11:04;;;;;;;10.77;8.52;;;17.30;99.90;;;;;;5031412;28;20087;-76
2021/09/25 09:13:30;;;;;;;11.35;9.32;;;17.30;99.90;;;;;;5013799;28;20029;-76
2021/09/25 09:15:56;;;;;;;12.35;8.48;;;17.40;99.90;;;;;;5031643;28;20025;-77
2021/09/25 09:18:24;;;;;;;10.05;7.90;;;17.40;99.90;;;;;;5013791;28;20095;-77
2021/09/25 09:21:11;;;;;;;12.02;8.82;;;17.60;99.90;;;;;;5013744;28;20072;-77
2021/09/25 09:23:39;;;;;;;11.27;7.90;;;17.60;99.90;;;;;;5031405;28;20025;-77
2021/09/25 09:26:06;;;;;;;10.30;8.95;;;17.60;99.90;;;;;;5031795;28;20044;-77
2021/09/25 09:28:35;;;;;;;11.77;8.75;;;17.70;99.90;;;;;;5031486;28;20411;-77
2021/09/25 09:31:03;;;;;;;9.90;8.35;;;17.60;99.90;;;;;;5031166;28;20478;-77
2021/09/25 09:33:37;;;;;;;11.00;7.85;;;17.60;99.90;;;;;;5031344;28;20058;-76
2021/09/25 09:36:30;;;;;;;11.65;8.60;;;17.80;99.90;;;;;;5031867;28;20096;-77
2021/09/25 09:39:08;;;;;;;10.50;7.75;;;17.90;99.90;;;;;;5031463;28;20053;-77
2021/09/25 09:41:39;;;;;;;11.48;7.63;;;18.10;99.90;;;;;;5031142;28;20499;-77
2021/09/25 09:44:21;;;;;;;10.13;7.80;;;18.00;99.90;;;;;;5013584;28;20116;-77
2021/09/25 09:46:52;;;;;;;13.32;7.90;;;18.00;99.90;;;;;;5022387;28;20061;-77
2021/09/25 09:49:21;;;;;;;14.20;8.82;;;18.20;99.90;;;;;;5051011;28;20087;-76
2021/09/25 09:51:51;;;;;;;11.10;7.85;;;18.10;99.90;;;;;;5051017;28;20386;-77
2021/09/25 09:54:25;;;;;;;11.45;8.30;;;18.20;99.90;;;;;;5048011;28;20040;-77
2021/09/25 09:56:57;;;;;;;10.27;8.20;;;18.30;99.90;;;;;;5031682;28;20341;-76
2021/09/25 09:59:24;;;;;;;10.63;8.48;;;18.40;99.90;;;;;;5013527;28;20049;-77
2021/09/25 10:01:49;;;;;;;11.32;8.55;;;18.50;99.90;;;;;;5030945;28;20030;-77
2021/09/25 10:04:15;;;;;;;11.15;7.82;;;18.70;99.90;;;;;;5030876;28;20036;-77
2021/09/25 10:06:41;;;;;;;12.05;7.20;;;18.70;99.90;;;;;;5031057;28;20032;-76
2021/09/25 10:09:13;;;;;;;9.93;8.50;;;18.70;99.90;;;;;;5030976;28;20021;-77
2021/09/25 10:11:40;;;;;;;10.10;8.55;;;18.50;99.90;;;;;;5016580;28;20099;-77
2021/09/25 10:14:07;;;;;;;9.63;7.55;;;18.40;99.90;;;;;;5034580;28;20079;-76
2021/09/25 10:16:34;;;;;;;10.93;8.02;;;18.50;99.90;;;;;;5016944;28;20022;-77
2021/09/25 10:19:02;;;;;;;11.25;7.80;;;18.80;99.90;;;;;;5034585;28;20049;-77
2021/09/25 10:21:30;;;;;;;11.02;7.75;;;18.80;99.90;;;;;;5016891;28;20120;-77
2021/09/25 10:24:02;;;;;;;11.50;8.40;;;18.90;99.90;;;;;;5034240;28;20025;-76
2021/09/25 10:26:29;;;;;;;10.00;7.63;;;18.70;99.90;;;;;;5047618;28;20071;-77
2021/09/25 10:28:59;;;;;;;9.38;7.07;;;19.00;99.90;;;;;;5034430;28;20035;-77
2021/09/25 10:31:25;;;;;;;7.72;6.53;;;19.20;99.90;;;;;;5016244;28;20475;-77
2021/09/25 10:34:15;;;;;;;8.80;7.55;;;19.20;99.90;;;;;;5016583;28;20033;-76
2021/09/25 10:36:47;;;;;;;10.40;8.18;;;19.30;99.90;;;;;;5034171;28;20471;-77
2021/09/25 10:39:23;;;;;;;10.63;8.27;;;19.10;99.90;;;;;;5034268;28;20021;-77
2021/09/25 10:41:55;;;;;;;12.07;7.82;;;19.50;99.90;;;;;;5034276;28;20021;-77
2021/09/25 10:44:26;;;;;;;9.23;8.00;;;19.50;99.90;;;;;;5047306;28;20036;-77
2021/09/25 10:47:02;;;;;;;9.75;7.03;;;19.40;99.90;;;;;;5033968;28;20497;-77
2021/09/25 10:49:39;;;;;;;;;;;19.50;99.90;;;;;;5038602;28;20152;-77
2021/09/25 10:52:04;;;;;;;10.10;8.07;;;19.50;99.90;;;;;;5054181;28;20335;-77
2021/09/25 10:54:30;;;;;;;13.98;7.57;;;19.50;99.90;;;;;;5054250;28;20540;-76
2021/09/25 10:56:58;;;;;;;9.95;7.50;;;19.40;99.90;;;;;;5025143;28;20025;-77
2021/09/25 10:59:23;;;;;;;8.57;6.80;;;19.40;99.90;;;;;;5033661;28;20032;-77
2021/09/25 11:01:54;;;;;;;11.48;7.80;;;19.70;99.90;;;;;;5033609;28;20022;-76
2021/09/25 11:04:21;;;;;;;10.43;7.45;;;19.70;99.90;;;;;;5033519;28;20495;-77
2021/09/25 11:06:58;;;;;;;8.32;7.10;;;19.70;99.90;;;;;;5033683;28;20036;-76
2021/09/25 11:09:29;;;;;;;7.68;6.82;;;19.80;99.90;;;;;;5033710;28;20049;-76
2021/09/25 11:12:06;;;;;;;7.95;7.13;;;19.90;99.90;;;;;;5033088;28;20368;-77
2021/09/25 11:14:42;;;;;;;9.63;7.18;;;20.00;99.90;;;;;;5033504;28;20080;-77
2021/09/25 11:17:10;;;;;;;;;;;19.80;99.90;;;;;;5033920;28;20031;-76
2021/09/25 11:19:39;;;;;;;9.63;6.30;;;19.70;99.90;;;;;;5033484;28;19906;-76
2021/09/25 11:22:13;;;;;;;6.57;5.97;;;19.80;99.90;;;;;;5032824;28;20025;-77
2021/09/25 11:25:05;;;;;;;6.55;5.75;;;20.10;99.90;;;;;;5033228;28;20029;-77
2021/09/25 11:27:35;;;;;;;6.82;6.13;;;20.20;99.90;;;;;;5023227;28;20038;-77
2021/09/25 11:30:11;;;;;;;8.10;6.18;;;20.10;99.90;;;;;;5033093;28;20390;-77
2021/09/25 11:32:47;;;;;;;8.05;6.38;;;20.30;99.90;;;;;;5026403;28;20051;-77
2021/09/25 11:35:19;;;;;;;7.85;6.72;;;20.30;99.90;;;;;;5033962;28;20041;-77
2021/09/25 11:37:56;;;;;;;6.85;6.03;;;20.40;99.90;;;;;;5033164;28;20028;-76
2021/09/25 11:40:28;;;;;;;7.68;6.45;;;20.40;99.90;;;;;;5033049;28;20030;-77
2021/09/25 11:43:00;;;;;;;8.80;6.57;;;20.50;99.90;;;;;;5032754;28;20022;-77
2021/09/25 11:45:33;;;;;;;7.72;6.20;;;21.00;99.90;;;;;;5015112;28;20400;-77
2021/09/25 11:48:01;;;;;;;7.60;6.07;;;21.40;99.90;;;;;;5015326;28;20032;-77
2021/09/25 11:50:31;;;;;;;7.88;6.30;;;21.80;99.90;;;;;;5044949;28;20108;-76
2021/09/25 11:53:00;;;;;;;8.55;6.20;;;22.10;99.90;;;;;;5053016;28;20025;-76
2021/09/25 11:55:28;;;;;;;5.95;5.35;;;23.20;99.90;;;;;;5052520;28;20021;-78
2021/09/25 11:57:59;;;;;;;7.68;5.50;;;23.30;99.90;;;;;;5046446;28;20108;-75
2021/09/25 12:00:54;;;;;;;6.80;6.10;;;23.50;99.90;;;;;;5032798;28;20029;-78
2021/09/25 12:03:22;;;;;;;9.77;5.65;;;23.40;99.90;;;;;;5010590;28;20428;-75
2021/09/25 12:05:49;;;;;;;5.95;5.32;;;24.00;99.90;;;;;;5014794;28;20079;-76
2021/09/25 12:08:23;;;;;;;6.20;5.60;;;23.90;99.90;;;;;;5032610;28;20104;-76
2021/09/25 12:10:50;;;;;;;11.38;6.40;;;23.90;99.90;;;;;;5032041;28;20026;-75
2021/09/25 12:13:41;;;;;;;6.22;5.57;;;24.10;99.90;;;;;;5032326;28;20072;-76
2021/09/25 12:16:13;;;;;;;7.88;6.15;;;24.50;99.90;;;;;;5023572;28;20033;-76
2021/09/25 12:18:40;;;;;;;8.43;5.78;;;24.50;99.90;;;;;;5014481;28;20471;-75
2021/09/25 12:21:11;;;;;;;8.30;6.38;;;24.90;99.90;;;;;;5032169;28;20049;-76
2021/09/25 12:23:53;;;;;;;6.55;5.82;;;24.20;99.90;;;;;;5031983;28;20305;-76
2021/09/25 12:26:24;;;;;;;7.72;6.43;;;25.20;99.90;;;;;;5014444;28;20446;-76
2021/09/25 12:28:52;;;;;;;6.60;5.80;;;25.30;99.90;;;;;;5014486;28;20031;-75
2021/09/25 12:31:23;;;;;;;6.38;5.57;;;25.70;99.90;;;;;;5027315;28;20206;-76
2021/09/25 12:34:16;;;;;;;6.63;5.65;;;26.10;99.90;;;;;;5031489;28;20357;-76
2021/09/25 12:36:45;;;;;;;6.43;5.82;;;27.10;99.90;;;;;;5029090;28;20095;-76
2021/09/25 12:39:14;;;;;;;7.65;6.03;;;27.20;99.90;;;;;;5031893;28;20375;-76